sensor_id;sensor_type;location;lat;lon;timestamp;pressure;altitude;pressure_sealevel;temperature
64600;BMP280;6553;48.412;9.514;2023-04-03T00:01:37;71637.50;;;19.60
64600;BMP280;6553;48.412;9.514;2023-04-03T00:04:05;71638.03;;;19.60
64600;BMP280;6553;48.412;9.514;2023-04-03T00:06:32;71633.69;;;19.59
64600;BMP280;6553;48.412;9.514;2023-04-03T00:08:58;71640.28;;;19.60
64600;BMP280;6553;48.412;9.514;2023-04-03T00:11:24;71631.56;;;19.57
64600;BMP280;6553;48.412;9.514;2023-04-03T00:13:50;71638.16;;;19.58
64600;BMP280;6553;48.412;9.514;2023-04-03T00:16:17;71633.69;;;19.59
64600;BMP280;6553;48.412;9.514;2023-04-03T00:18:43;71632.19;;;19.55
64600;BMP280;6553;48.412;9.514;2023-04-03T00:21:12;71632.63;;;19.58
64600;BMP280;6553;48.412;9.514;2023-04-03T00:23:38;71633.25;;;19.56
64600;BMP280;6553;48.412;9.514;2023-04-03T00:26:04;71630.50;;;19.56
64600;BMP280;6553;48.412;9.514;2023-04-03T00:28:29;71631.03;;;19.56
64600;BMP280;6553;48.412;9.514;2023-04-03T00:30:55;71637.09;;;19.57
64600;BMP280;6553;48.412;9.514;2023-04-03T00:33:21;71631.03;;;19.56
64600;BMP280;6553;48.412;9.514;2023-04-03T00:35:48;71636.56;;;19.56
64600;BMP280;6553;48.412;9.514;2023-04-03T00:38:15;71630.50;;;19.56
64600;BMP280;6553;48.412;9.514;2023-04-03T00:40:47;71631.03;;;19.56
64600;BMP280;6553;48.412;9.514;2023-04-03T00:43:24;71628.91;;;19.54
64600;BMP280;6553;48.412;9.514;2023-04-03T00:45:53;71636.56;;;19.56
64600;BMP280;6553;48.412;9.514;2023-04-03T00:48:34;71634.88;;;19.57
64600;BMP280;6553;48.412;9.514;2023-04-03T00:51:02;71638.16;;;19.58
64600;BMP280;6553;48.412;9.514;2023-04-03T00:53:35;71632.63;;;19.58
64600;BMP280;6553;48.412;9.514;2023-04-03T00:56:06;71631.56;;;19.57
64600;BMP280;6553;48.412;9.514;2023-04-03T00:58:49;71633.78;;;19.56
64600;BMP280;6553;48.412;9.514;2023-04-03T01:01:22;71637.63;;;19.57
64600;BMP280;6553;48.412;9.514;2023-04-03T01:03:49;71632.19;;;19.55
64600;BMP280;6553;48.412;9.514;2023-04-03T01:06:20;71631.13;;;19.54
64600;BMP280;6553;48.412;9.514;2023-04-03T01:08:49;71627.72;;;19.56
64600;BMP280;6553;48.412;9.514;2023-04-03T01:11:15;71630.50;;;19.56
64600;BMP280;6553;48.412;9.514;2023-04-03T01:13:43;71631.56;;;19.57
64600;BMP280;6553;48.412;9.514;2023-04-03T01:16:10;71635.41;;;19.58
64600;BMP280;6553;48.412;9.514;2023-04-03T01:18:39;71627.72;;;19.56
64600;BMP280;6553;48.412;9.514;2023-04-03T01:24:33;71631.56;;;19.57
64600;BMP280;6553;48.412;9.514;2023-04-03T01:27:03;71627.72;;;19.56
64600;BMP280;6553;48.412;9.514;2023-04-03T01:29:30;71629.97;;;19.55
64600;BMP280;6553;48.412;9.514;2023-04-03T01:32:00;71628.38;;;19.54
64600;BMP280;6553;48.412;9.514;2023-04-03T01:34:28;71629.97;;;19.55
64600;BMP280;6553;48.412;9.514;2023-04-03T01:36:54;71627.72;;;19.56
64600;BMP280;6553;48.412;9.514;2023-04-03T01:39:21;71639.22;;;19.59
64600;BMP280;6553;48.412;9.514;2023-04-03T01:41:48;71629.88;;;19.58
64600;BMP280;6553;48.412;9.514;2023-04-03T01:44:24;71634.31;;;19.57
64600;BMP280;6553;48.412;9.514;2023-04-03T01:46:50;71634.31;;;19.57
64600;BMP280;6553;48.412;9.514;2023-04-03T01:49:16;71630.50;;;19.56
64600;BMP280;6553;48.412;9.514;2023-04-03T01:51:42;71632.09;;;19.57
64600;BMP280;6553;48.412;9.514;2023-04-03T01:54:08;71628.78;;;19.57
64600;BMP280;6553;48.412;9.514;2023-04-03T01:56:33;71628.25;;;19.56
64600;BMP280;6553;48.412;9.514;2023-04-03T01:58:59;71631.56;;;19.57
64600;BMP280;6553;48.412;9.514;2023-04-03T02:01:25;71631.56;;;19.57
64600;BMP280;6553;48.412;9.514;2023-04-03T02:03:51;71636.44;;;19.59
64600;BMP280;6553;48.412;9.514;2023-04-03T02:06:17;71634.97;;;19.55
64600;BMP280;6553;48.412;9.514;2023-04-03T02:08:42;71634.31;;;19.57
64600;BMP280;6553;48.412;9.514;2023-04-03T02:11:08;71628.91;;;19.54
64600;BMP280;6553;48.412;9.514;2023-04-03T02:13:34;71629.44;;;19.55
64600;BMP280;6553;48.412;9.514;2023-04-03T02:16:07;71636.03;;;19.56
64600;BMP280;6553;48.412;9.514;2023-04-03T02:18:33;71625.59;;;19.54
64600;BMP280;6553;48.412;9.514;2023-04-03T02:20:59;71625.59;;;19.54
64600;BMP280;6553;48.412;9.514;2023-04-03T02:23:25;71637.75;;;19.55
64600;BMP280;6553;48.412;9.514;2023-04-03T02:25:51;71628.78;;;19.57
64600;BMP280;6553;48.412;9.514;2023-04-03T02:28:17;71632.63;;;19.58
64600;BMP280;6553;48.412;9.514;2023-04-03T02:30:43;71629.88;;;19.58
64600;BMP280;6553;48.412;9.514;2023-04-03T02:33:10;71629.44;;;19.55
64600;BMP280;6553;48.412;9.514;2023-04-03T02:35:36;71634.31;;;19.57
64600;BMP280;6553;48.412;9.514;2023-04-03T02:38:02;71632.09;;;19.57
64600;BMP280;6553;48.412;9.514;2023-04-03T02:40:28;71635.41;;;19.58
64600;BMP280;6553;48.412;9.514;2023-04-03T02:42:54;71633.25;;;19.56
64600;BMP280;6553;48.412;9.514;2023-04-03T02:45:21;71637.09;;;19.57
64600;BMP280;6553;48.412;9.514;2023-04-03T02:47:47;71634.88;;;19.57
64600;BMP280;6553;48.412;9.514;2023-04-03T02:50:13;71634.31;;;19.57
64600;BMP280;6553;48.412;9.514;2023-04-03T02:52:39;71637.09;;;19.57
64600;BMP280;6553;48.412;9.514;2023-04-03T02:55:05;71631.13;;;19.54
64600;BMP280;6553;48.412;9.514;2023-04-03T02:57:31;71629.97;;;19.55
64600;BMP280;6553;48.412;9.514;2023-04-03T02:59:57;71628.25;;;19.56
64600;BMP280;6553;48.412;9.514;2023-04-03T03:02:23;71629.44;;;19.55
64600;BMP280;6553;48.412;9.514;2023-04-03T03:04:49;71628.91;;;19.54
64600;BMP280;6553;48.412;9.514;2023-04-03T03:07:15;71630.63;;;19.53
64600;BMP280;6553;48.412;9.514;2023-04-03T03:09:41;71624.53;;;19.53
64600;BMP280;6553;48.412;9.514;2023-04-03T03:12:07;71630.09;;;19.53
64600;BMP280;6553;48.412;9.514;2023-04-03T03:14:32;71623.50;;;19.52
64600;BMP280;6553;48.412;9.514;2023-04-03T03:16:58;71629.53;;;19.52
64600;BMP280;6553;48.412;9.514;2023-04-03T03:19:24;71631.66;;;19.54
64600;BMP280;6553;48.412;9.514;2023-04-03T03:21:51;71630.09;;;19.53
64600;BMP280;6553;48.412;9.514;2023-04-03T03:24:17;71626.13;;;19.54
64600;BMP280;6553;48.412;9.514;2023-04-03T03:26:43;71628.91;;;19.54
64600;BMP280;6553;48.412;9.514;2023-04-03T03:29:09;71629.44;;;19.55
64600;BMP280;6553;48.412;9.514;2023-04-03T03:31:36;71628.38;;;19.54
64600;BMP280;6553;48.412;9.514;2023-04-03T03:34:01;71631.13;;;19.54
64600;BMP280;6553;48.412;9.514;2023-04-03T03:36:27;71636.66;;;19.54
64600;BMP280;6553;48.412;9.514;2023-04-03T03:38:53;71630.63;;;19.53
64600;BMP280;6553;48.412;9.514;2023-04-03T03:41:19;71627.19;;;19.55
64600;BMP280;6553;48.412;9.514;2023-04-03T03:43:45;71631.66;;;19.54
64600;BMP280;6553;48.412;9.514;2023-04-03T03:46:13;71624.53;;;19.53
64600;BMP280;6553;48.412;9.514;2023-04-03T03:48:38;71634.97;;;19.55
64600;BMP280;6553;48.412;9.514;2023-04-03T03:51:04;71625.59;;;19.54
64600;BMP280;6553;48.412;9.514;2023-04-03T03:53:34;71628.38;;;19.54
64600;BMP280;6553;48.412;9.514;2023-04-03T03:56:05;71631.13;;;19.54
64600;BMP280;6553;48.412;9.514;2023-04-03T03:58:32;71628.38;;;19.54
64600;BMP280;6553;48.412;9.514;2023-04-03T04:01:06;71631.13;;;19.54
64600;BMP280;6553;48.412;9.514;2023-04-03T04:03:34;71625.59;;;19.54
64600;BMP280;6553;48.412;9.514;2023-04-03T04:06:01;71628.78;;;19.57
64600;BMP280;6553;48.412;9.514;2023-04-03T04:08:26;71634.97;;;19.55
64600;BMP280;6553;48.412;9.514;2023-04-03T04:10:53;71629.97;;;19.55
64600;BMP280;6553;48.412;9.514;2023-04-03T04:13:19;71629.97;;;19.55
64600;BMP280;6553;48.412;9.514;2023-04-03T04:15:45;71631.66;;;19.54
64600;BMP280;6553;48.412;9.514;2023-04-03T04:18:12;71634.31;;;19.57
64600;BMP280;6553;48.412;9.514;2023-04-03T04:20:39;71629.88;;;19.58
64600;BMP280;6553;48.412;9.514;2023-04-03T04:23:05;71631.66;;;19.54
64600;BMP280;6553;48.412;9.514;2023-04-03T04:25:31;71628.38;;;19.54
64600;BMP280;6553;48.412;9.514;2023-04-03T04:27:58;71626.66;;;19.55
64600;BMP280;6553;48.412;9.514;2023-04-03T04:30:24;71627.84;;;19.53
64600;BMP280;6553;48.412;9.514;2023-04-03T04:32:50;71628.78;;;19.57
64600;BMP280;6553;48.412;9.514;2023-04-03T04:35:17;71630.50;;;19.56
64600;BMP280;6553;48.412;9.514;2023-04-03T04:37:45;71628.91;;;19.54
64600;BMP280;6553;48.412;9.514;2023-04-03T04:40:11;71624.53;;;19.53
64600;BMP280;6553;48.412;9.514;2023-04-03T04:42:37;71631.13;;;19.54
64600;BMP280;6553;48.412;9.514;2023-04-03T04:45:04;71630.63;;;19.53
64600;BMP280;6553;48.412;9.514;2023-04-03T04:47:30;71629.03;;;19.52
64600;BMP280;6553;48.412;9.514;2023-04-03T04:49:56;71620.81;;;19.49
64600;BMP280;6553;48.412;9.514;2023-04-03T04:52:21;71623.50;;;19.52
64600;BMP280;6553;48.412;9.514;2023-04-03T04:54:47;71630.09;;;19.53
64600;BMP280;6553;48.412;9.514;2023-04-03T04:57:13;71629.03;;;19.52
64600;BMP280;6553;48.412;9.514;2023-04-03T04:59:39;71626.25;;;19.52
64600;BMP280;6553;48.412;9.514;2023-04-03T05:02:06;71626.25;;;19.52
64600;BMP280;6553;48.412;9.514;2023-04-03T05:04:32;71631.78;;;19.52
64600;BMP280;6553;48.412;9.514;2023-04-03T05:07:05;71628.91;;;19.54
64600;BMP280;6553;48.412;9.514;2023-04-03T05:09:33;71633.91;;;19.54
64600;BMP280;6553;48.412;9.514;2023-04-03T05:12:00;71627.19;;;19.55
64600;BMP280;6553;48.412;9.514;2023-04-03T05:14:30;71632.19;;;19.55
64600;BMP280;6553;48.412;9.514;2023-04-03T05:17:00;71634.97;;;19.55
64600;BMP280;6553;48.412;9.514;2023-04-03T05:19:29;71625.59;;;19.54
64600;BMP280;6553;48.412;9.514;2023-04-03T05:21:56;71627.84;;;19.53
64600;BMP280;6553;48.412;9.514;2023-04-03T05:24:22;71624.00;;;19.52
64600;BMP280;6553;48.412;9.514;2023-04-03T05:26:48;71626.78;;;19.52
64600;BMP280;6553;48.412;9.514;2023-04-03T05:29:14;71626.78;;;19.52
64600;BMP280;6553;48.412;9.514;2023-04-03T05:31:41;71630.09;;;19.53
64600;BMP280;6553;48.412;9.514;2023-04-03T05:34:09;71632.19;;;19.55
64600;BMP280;6553;48.412;9.514;2023-04-03T05:36:36;71633.25;;;19.56
64600;BMP280;6553;48.412;9.514;2023-04-03T05:39:05;71629.97;;;19.55
64600;BMP280;6553;48.412;9.514;2023-04-03T05:41:34;71626.25;;;19.52
64600;BMP280;6553;48.412;9.514;2023-04-03T05:44:00;71624.66;;;19.50
64600;BMP280;6553;48.412;9.514;2023-04-03T05:46:26;71628.38;;;19.54
64600;BMP280;6553;48.412;9.514;2023-04-03T05:48:55;71626.13;;;19.54
64600;BMP280;6553;48.412;9.514;2023-04-03T05:51:32;71627.72;;;19.56
64600;BMP280;6553;48.412;9.514;2023-04-03T05:54:23;71626.66;;;19.55
64600;BMP280;6553;48.412;9.514;2023-04-03T05:56:51;71629.88;;;19.58
64600;BMP280;6553;48.412;9.514;2023-04-03T05:59:19;71628.78;;;19.57
64600;BMP280;6553;48.412;9.514;2023-04-03T06:01:47;71630.38;;;19.58
64600;BMP280;6553;48.412;9.514;2023-04-03T06:04:13;71630.91;;;19.59
64600;BMP280;6553;48.412;9.514;2023-04-03T06:06:50;71632.09;;;19.57
64600;BMP280;6553;48.412;9.514;2023-04-03T06:09:20;71636.97;;;19.59
64600;BMP280;6553;48.412;9.514;2023-04-03T06:11:46;71634.31;;;19.57
64600;BMP280;6553;48.412;9.514;2023-04-03T06:14:12;71629.31;;;19.57
64600;BMP280;6553;48.412;9.514;2023-04-03T06:16:39;71633.78;;;19.56
64600;BMP280;6553;48.412;9.514;2023-04-03T06:19:08;71630.91;;;19.59
64600;BMP280;6553;48.412;9.514;2023-04-03T06:21:38;71631.97;;;19.60
64600;BMP280;6553;48.412;9.514;2023-04-03T06:24:05;71633.69;;;19.59
64600;BMP280;6553;48.412;9.514;2023-04-03T06:26:33;71638.03;;;19.60
64600;BMP280;6553;48.412;9.514;2023-04-03T06:28:59;71634.75;;;19.60
64600;BMP280;6553;48.412;9.514;2023-04-03T06:31:25;71643.03;;;19.60
64600;BMP280;6553;48.412;9.514;2023-04-03T06:33:51;71637.50;;;19.60
64600;BMP280;6553;48.412;9.514;2023-04-03T06:36:19;71637.50;;;19.60
64600;BMP280;6553;48.412;9.514;2023-04-03T06:38:47;71638.56;;;19.61
64600;BMP280;6553;48.412;9.514;2023-04-03T06:41:13;71637.50;;;19.60
64600;BMP280;6553;48.412;9.514;2023-04-03T06:43:38;71637.41;;;19.63
64600;BMP280;6553;48.412;9.514;2023-04-03T06:46:04;71638.03;;;19.60
64600;BMP280;6553;48.412;9.514;2023-04-03T06:48:31;71642.41;;;19.62
64600;BMP280;6553;48.412;9.514;2023-04-03T06:50:57;71637.91;;;19.63
64600;BMP280;6553;48.412;9.514;2023-04-03T06:53:23;71637.41;;;19.63
64600;BMP280;6553;48.412;9.514;2023-04-03T06:55:49;71637.91;;;19.63
64600;BMP280;6553;48.412;9.514;2023-04-03T06:58:15;71650.59;;;19.65
64600;BMP280;6553;48.412;9.514;2023-04-03T07:00:42;71639.00;;;19.64
64600;BMP280;6553;48.412;9.514;2023-04-03T07:03:08;71636.75;;;19.65
64600;BMP280;6553;48.412;9.514;2023-04-03T07:05:34;71643.38;;;19.66
64600;BMP280;6553;48.412;9.514;2023-04-03T07:08:00;71640.59;;;19.66
64600;BMP280;6553;48.412;9.514;2023-04-03T07:10:26;71638.38;;;19.66
64600;BMP280;6553;48.412;9.514;2023-04-03T07:12:52;71641.66;;;19.67
64600;BMP280;6553;48.412;9.514;2023-04-03T07:15:18;71644.94;;;19.67
64600;BMP280;6553;48.412;9.514;2023-04-03T07:17:44;71639.41;;;19.67
64600;BMP280;6553;48.412;9.514;2023-04-03T07:20:10;71644.84;;;19.70
64600;BMP280;6553;48.412;9.514;2023-04-03T07:22:36;71641.53;;;19.69
64600;BMP280;6553;48.412;9.514;2023-04-03T07:25:03;71648.66;;;19.71
64600;BMP280;6553;48.412;9.514;2023-04-03T07:27:29;71642.59;;;19.70
64600;BMP280;6553;48.412;9.514;2023-04-03T07:29:56;71641.00;;;19.69
64600;BMP280;6553;48.412;9.514;2023-04-03T07:32:21;71648.13;;;19.70
64600;BMP280;6553;48.412;9.514;2023-04-03T07:34:47;71646.53;;;19.69
64600;BMP280;6553;48.412;9.514;2023-04-03T07:37:13;71651.31;;;19.73
64600;BMP280;6553;48.412;9.514;2023-04-03T07:39:39;71652.91;;;19.75
64600;BMP280;6553;48.412;9.514;2023-04-03T07:42:05;71641.53;;;19.69
64600;BMP280;6553;48.412;9.514;2023-04-03T07:44:31;71653.03;;;19.72
64600;BMP280;6553;48.412;9.514;2023-04-03T07:46:57;71649.19;;;19.71
64600;BMP280;6553;48.412;9.514;2023-04-03T07:49:23;71648.66;;;19.71
64600;BMP280;6553;48.412;9.514;2023-04-03T07:51:50;71646.41;;;19.71
64600;BMP280;6553;48.412;9.514;2023-04-03T07:54:17;71651.31;;;19.73
64600;BMP280;6553;48.412;9.514;2023-04-03T07:56:42;71648.56;;;19.73
64600;BMP280;6553;48.412;9.514;2023-04-03T07:59:09;71652.38;;;19.74
64600;BMP280;6553;48.412;9.514;2023-04-03T08:01:36;71654.50;;;19.76
64600;BMP280;6553;48.412;9.514;2023-04-03T08:04:01;71654.09;;;19.73
64600;BMP280;6553;48.412;9.514;2023-04-03T08:06:27;71651.31;;;19.73
64600;BMP280;6553;48.412;9.514;2023-04-03T08:08:55;71658.47;;;19.75
64600;BMP280;6553;48.412;9.514;2023-04-03T08:11:21;71656.09;;;19.78
64600;BMP280;6553;48.412;9.514;2023-04-03T08:13:49;71652.78;;;19.77
64600;BMP280;6553;48.412;9.514;2023-04-03T08:16:18;71655.56;;;19.77
64600;BMP280;6553;48.412;9.514;2023-04-03T08:18:45;71653.19;;;19.80
64600;BMP280;6553;48.412;9.514;2023-04-03T08:21:12;71652.16;;;19.79
64600;BMP280;6553;48.412;9.514;2023-04-03T08:23:39;71660.47;;;19.79
64600;BMP280;6553;48.412;9.514;2023-04-03T08:26:13;71663.13;;;19.82
64600;BMP280;6553;48.412;9.514;2023-04-03T08:28:39;71661.50;;;19.80
64600;BMP280;6553;48.412;9.514;2023-04-03T08:31:11;71657.56;;;19.82
64600;BMP280;6553;48.412;9.514;2023-04-03T08:33:38;71658.72;;;19.80
64600;BMP280;6553;48.412;9.514;2023-04-03T08:36:07;71654.94;;;19.79
64600;BMP280;6553;48.412;9.514;2023-04-03T08:38:34;71654.81;;;19.82
64600;BMP280;6553;48.412;9.514;2023-04-03T08:41:29;71659.81;;;19.81
64600;BMP280;6553;48.412;9.514;2023-04-03T08:44:21;71660.88;;;19.82
64600;BMP280;6553;48.412;9.514;2023-04-03T08:47:12;71658.72;;;19.80
64600;BMP280;6553;48.412;9.514;2023-04-03T08:49:45;71655.34;;;19.82
64600;BMP280;6553;48.412;9.514;2023-04-03T08:52:19;71660.34;;;19.82
64600;BMP280;6553;48.412;9.514;2023-04-03T08:54:59;71655.34;;;19.82
64600;BMP280;6553;48.412;9.514;2023-04-03T08:57:39;71668.53;;;19.84
64600;BMP280;6553;48.412;9.514;2023-04-03T09:02:52;71665.13;;;19.86
64600;BMP280;6553;48.412;9.514;2023-04-03T09:10:43;71671.63;;;19.90
64600;BMP280;6553;48.412;9.514;2023-04-03T09:13:57;71668.19;;;19.92
64600;BMP280;6553;48.412;9.514;2023-04-03T09:16:54;71667.66;;;19.91
64600;BMP280;6553;48.412;9.514;2023-04-03T09:22:09;71673.59;;;19.94
64600;BMP280;6553;48.412;9.514;2023-04-03T09:24:38;71678.63;;;19.94
64600;BMP280;6553;48.412;9.514;2023-04-03T09:27:10;71666.47;;;19.93
64600;BMP280;6553;48.412;9.514;2023-04-03T09:29:44;71664.59;;;19.86
64600;BMP280;6553;48.412;9.514;2023-04-03T09:32:34;71671.50;;;19.92
64600;BMP280;6553;48.412;9.514;2023-04-03T09:37:46;71666.59;;;19.90
64600;BMP280;6553;48.412;9.514;2023-04-03T09:40:31;71670.44;;;19.91
64600;BMP280;6553;48.412;9.514;2023-04-03T09:45:43;71667.25;;;19.88
64600;BMP280;6553;48.412;9.514;2023-04-03T09:48:18;71660.63;;;19.87
64600;BMP280;6553;48.412;9.514;2023-04-03T09:53:38;71666.72;;;19.88
64600;BMP280;6553;48.412;9.514;2023-04-03T10:01:57;71661.19;;;19.88
64600;BMP280;6553;48.412;9.514;2023-04-03T10:04:23;71671.06;;;19.89
64600;BMP280;6553;48.412;9.514;2023-04-03T10:06:55;71665.66;;;19.87
64600;BMP280;6553;48.412;9.514;2023-04-03T10:09:29;71670.53;;;19.89
64600;BMP280;6553;48.412;9.514;2023-04-03T10:12:07;71667.91;;;19.86
64600;BMP280;6553;48.412;9.514;2023-04-03T10:17:54;71663.94;;;19.88
64600;BMP280;6553;48.412;9.514;2023-04-03T10:20:47;71668.31;;;19.89
64600;BMP280;6553;48.412;9.514;2023-04-03T10:23:29;71668.31;;;19.89
64600;BMP280;6553;48.412;9.514;2023-04-03T10:26:16;71662.75;;;19.89
64600;BMP280;6553;48.412;9.514;2023-04-03T10:29:38;71666.72;;;19.88
64600;BMP280;6553;48.412;9.514;2023-04-03T10:34:24;71662.47;;;19.84
64600;BMP280;6553;48.412;9.514;2023-04-03T10:37:24;71661.41;;;19.83
64600;BMP280;6553;48.412;9.514;2023-04-03T10:40:23;71664.72;;;19.83
64600;BMP280;6553;48.412;9.514;2023-04-03T10:46:08;71662.91;;;19.87
64600;BMP280;6553;48.412;9.514;2023-04-03T10:51:56;71665.13;;;19.86
64600;BMP280;6553;48.412;9.514;2023-04-03T10:54:36;71667.25;;;19.88
64600;BMP280;6553;48.412;9.514;2023-04-03T10:57:07;71663.41;;;19.87
64600;BMP280;6553;48.412;9.514;2023-04-03T10:59:59;71672.25;;;19.88
64600;BMP280;6553;48.412;9.514;2023-04-03T11:02:38;71663.94;;;19.88
64600;BMP280;6553;48.412;9.514;2023-04-03T11:05:32;71663.41;;;19.87
64600;BMP280;6553;48.412;9.514;2023-04-03T11:08:30;71663.94;;;19.88
64600;BMP280;6553;48.412;9.514;2023-04-03T11:10:59;71664.06;;;19.85
64600;BMP280;6553;48.412;9.514;2023-04-03T11:13:57;71660.13;;;19.87
64600;BMP280;6553;48.412;9.514;2023-04-03T11:16:34;71665.13;;;19.86
64600;BMP280;6553;48.412;9.514;2023-04-03T11:19:21;71666.19;;;19.87
64600;BMP280;6553;48.412;9.514;2023-04-03T11:22:22;71668.31;;;19.89
64600;BMP280;6553;48.412;9.514;2023-04-03T11:25:17;71669.25;;;19.93
64600;BMP280;6553;48.412;9.514;2023-04-03T11:27:58;71664.88;;;19.91
64600;BMP280;6553;48.412;9.514;2023-04-03T11:30:58;71662.75;;;19.89
64600;BMP280;6553;48.412;9.514;2023-04-03T11:36:54;71661.19;;;19.88
64600;BMP280;6553;48.412;9.514;2023-04-03T11:39:35;71671.06;;;19.89
64600;BMP280;6553;48.412;9.514;2023-04-03T11:42:40;71667.13;;;19.91
64600;BMP280;6553;48.412;9.514;2023-04-03T11:48:06;71669.38;;;19.90
64600;BMP280;6553;48.412;9.514;2023-04-03T11:50:48;71666.19;;;19.87
64600;BMP280;6553;48.412;9.514;2023-04-03T11:58:27;71670.97;;;19.92
64600;BMP280;6553;48.412;9.514;2023-04-03T12:01:09;71670.31;;;19.94
64600;BMP280;6553;48.412;9.514;2023-04-03T12:11:31;71679.88;;;20.03
64600;BMP280;6553;48.412;9.514;2023-04-03T12:16:30;71679.34;;;20.02
64600;BMP280;6553;48.412;9.514;2023-04-03T12:41:36;71677.44;;;19.95
64600;BMP280;6553;48.412;9.514;2023-04-03T12:47:19;71676.28;;;19.97
64600;BMP280;6553;48.412;9.514;2023-04-03T12:49:50;71676.28;;;19.97
64600;BMP280;6553;48.412;9.514;2023-04-03T12:52:31;71670.84;;;19.94
64600;BMP280;6553;48.412;9.514;2023-04-03T12:55:00;71670.84;;;19.94
64600;BMP280;6553;48.412;9.514;2023-04-03T12:57:30;71672.56;;;19.93
64600;BMP280;6553;48.412;9.514;2023-04-03T12:59:58;71671.06;;;19.89
64600;BMP280;6553;48.412;9.514;2023-04-03T13:02:30;71672.56;;;19.93
64600;BMP280;6553;48.412;9.514;2023-04-03T13:04:59;71673.75;;;19.92
64600;BMP280;6553;48.412;9.514;2023-04-03T13:07:37;71666.47;;;19.93
64600;BMP280;6553;48.412;9.514;2023-04-03T13:12:57;71675.88;;;19.94
64600;BMP280;6553;48.412;9.514;2023-04-03T13:15:39;71670.31;;;19.94
64600;BMP280;6553;48.412;9.514;2023-04-03T13:18:24;71668.72;;;19.92
64600;BMP280;6553;48.412;9.514;2023-04-03T13:20:51;71679.56;;;19.97
64600;BMP280;6553;48.412;9.514;2023-04-03T13:23:20;71678.63;;;19.94
64600;BMP280;6553;48.412;9.514;2023-04-03T13:25:47;71677.31;;;19.98
64600;BMP280;6553;48.412;9.514;2023-04-03T13:28:21;71675.75;;;19.96
64600;BMP280;6553;48.412;9.514;2023-04-03T13:36:40;71677.84;;;19.98
64600;BMP280;6553;48.412;9.514;2023-04-03T13:41:56;71679.34;;;20.02
64600;BMP280;6553;48.412;9.514;2023-04-03T13:44:26;71678.94;;;19.99
64600;BMP280;6553;48.412;9.514;2023-04-03T13:47:21;71678.94;;;19.99
64600;BMP280;6553;48.412;9.514;2023-04-03T13:52:49;71681.69;;;19.99
64600;BMP280;6553;48.412;9.514;2023-04-03T13:57:57;71676.81;;;19.97
64600;BMP280;6553;48.412;9.514;2023-04-03T14:00:47;71676.81;;;19.97
64600;BMP280;6553;48.412;9.514;2023-04-03T14:03:42;71675.63;;;19.99
64600;BMP280;6553;48.412;9.514;2023-04-03T14:06:16;71678.41;;;19.99
64600;BMP280;6553;48.412;9.514;2023-04-03T14:08:43;71671.28;;;19.97
64600;BMP280;6553;48.412;9.514;2023-04-03T14:11:19;71677.84;;;19.98
64600;BMP280;6553;48.412;9.514;2023-04-03T14:13:47;71672.97;;;19.96
64600;BMP280;6553;48.412;9.514;2023-04-03T14:16:27;71675.75;;;19.96
64600;BMP280;6553;48.412;9.514;2023-04-03T14:18:55;71670.97;;;19.92
64600;BMP280;6553;48.412;9.514;2023-04-03T14:21:21;71667.13;;;19.91
64600;BMP280;6553;48.412;9.514;2023-04-03T14:23:47;71672.03;;;19.93
64600;BMP280;6553;48.412;9.514;2023-04-03T14:26:21;71714.41;;;20.35
64600;BMP280;6553;48.412;9.514;2023-04-03T14:28:51;71700.06;;;20.22
64600;BMP280;6553;48.412;9.514;2023-04-03T14:31:19;71687.97;;;20.08
64600;BMP280;6553;48.412;9.514;2023-04-03T14:33:45;71683.31;;;20.01
64600;BMP280;6553;48.412;9.514;2023-04-03T14:36:17;71676.81;;;19.97
64600;BMP280;6553;48.412;9.514;2023-04-03T14:38:45;71670.31;;;19.94
64600;BMP280;6553;48.412;9.514;2023-04-03T14:41:13;71672.56;;;19.93
64600;BMP280;6553;48.412;9.514;2023-04-03T14:43:40;71670.44;;;19.91
64600;BMP280;6553;48.412;9.514;2023-04-03T14:46:16;71669.38;;;19.90
64600;BMP280;6553;48.412;9.514;2023-04-03T14:48:43;71672.03;;;19.93
64600;BMP280;6553;48.412;9.514;2023-04-03T14:51:13;71671.50;;;19.92
64600;BMP280;6553;48.412;9.514;2023-04-03T14:53:41;71664.34;;;19.91
64600;BMP280;6553;48.412;9.514;2023-04-03T14:56:19;71673.59;;;19.94
64600;BMP280;6553;48.412;9.514;2023-04-03T14:58:48;71676.28;;;19.97
64600;BMP280;6553;48.412;9.514;2023-04-03T15:01:17;71679.56;;;19.97
64600;BMP280;6553;48.412;9.514;2023-04-03T15:03:43;71673.59;;;19.94
64600;BMP280;6553;48.412;9.514;2023-04-03T15:06:13;71672.03;;;19.93
64600;BMP280;6553;48.412;9.514;2023-04-03T15:08:40;71673.09;;;19.94
64600;BMP280;6553;48.412;9.514;2023-04-03T15:11:09;71673.19;;;19.91
64600;BMP280;6553;48.412;9.514;2023-04-03T15:13:37;71665.53;;;19.89
64600;BMP280;6553;48.412;9.514;2023-04-03T15:16:04;71669.38;;;19.90
64600;BMP280;6553;48.412;9.514;2023-04-03T15:18:37;71669.38;;;19.90
64600;BMP280;6553;48.412;9.514;2023-04-03T15:21:04;71671.50;;;19.92
64600;BMP280;6553;48.412;9.514;2023-04-03T15:23:30;71670.44;;;19.91
64600;BMP280;6553;48.412;9.514;2023-04-03T15:25:57;71670.97;;;19.92
64600;BMP280;6553;48.412;9.514;2023-04-03T15:28:37;71665.97;;;19.92
64600;BMP280;6553;48.412;9.514;2023-04-03T15:31:04;71679.28;;;19.92
64600;BMP280;6553;48.412;9.514;2023-04-03T15:33:31;71672.66;;;19.91
64600;BMP280;6553;48.412;9.514;2023-04-03T15:35:57;71665.97;;;19.92
64600;BMP280;6553;48.412;9.514;2023-04-03T15:38:23;71664.34;;;19.91
64600;BMP280;6553;48.412;9.514;2023-04-03T15:40:49;71675.88;;;19.94
64600;BMP280;6553;48.412;9.514;2023-04-03T15:43:15;71665.13;;;19.86
64600;BMP280;6553;48.412;9.514;2023-04-03T15:45:42;71670.44;;;19.91
64600;BMP280;6553;48.412;9.514;2023-04-03T15:48:09;71668.72;;;19.92
64600;BMP280;6553;48.412;9.514;2023-04-03T15:50:35;71667.66;;;19.91
64600;BMP280;6553;48.412;9.514;2023-04-03T15:53:02;71669.91;;;19.91
64600;BMP280;6553;48.412;9.514;2023-04-03T15:55:32;71664.47;;;19.88
64600;BMP280;6553;48.412;9.514;2023-04-03T15:57:58;71672.66;;;19.91
64600;BMP280;6553;48.412;9.514;2023-04-03T16:00:25;71663.41;;;19.87
64600;BMP280;6553;48.412;9.514;2023-04-03T16:02:57;71670.44;;;19.91
64600;BMP280;6553;48.412;9.514;2023-04-03T16:05:24;71666.06;;;19.90
64600;BMP280;6553;48.412;9.514;2023-04-03T16:07:51;71669.38;;;19.90
64600;BMP280;6553;48.412;9.514;2023-04-03T16:10:18;71671.63;;;19.90
64600;BMP280;6553;48.412;9.514;2023-04-03T16:12:45;71667.78;;;19.89
64600;BMP280;6553;48.412;9.514;2023-04-03T16:15:11;71670.44;;;19.91
64600;BMP280;6553;48.412;9.514;2023-04-03T16:17:39;71670.44;;;19.91
64600;BMP280;6553;48.412;9.514;2023-04-03T16:20:08;71668.31;;;19.89
64600;BMP280;6553;48.412;9.514;2023-04-03T16:22:35;71665.53;;;19.89
64600;BMP280;6553;48.412;9.514;2023-04-03T16:25:03;71671.63;;;19.90